Time;durP1;ratioP1;P1;durP2;ratioP2;P2;SDS_P1;SDS_P2;PMS_P1;PMS_P2;Temp;Humidity;BMP_temperature;BMP_pressure;BME280_temperature;BME280_humidity;BME280_pressure;Samples;Min_cycle;Max_cycle;Signal;HPM_P1;HPM_P2
2023/10/16 00:00:45;;;;;;;5.97;3.83;;;;;;;5.82;100.00;102329.66;5071935;28;20056;-71
2023/10/16 00:03:12;;;;;;;8.68;3.63;;;;;;;5.91;100.00;102342.09;5072247;28;20143;-72
2023/10/16 00:05:44;;;;;;;9.27;4.53;;;;;;;5.90;100.00;102336.94;5072464;28;20044;-72
2023/10/16 00:08:11;;;;;;;5.03;3.20;;;;;;;5.88;100.00;102334.41;5072103;28;20044;-71
2023/10/16 00:10:37;;;;;;;6.35;3.15;;;;;;;5.90;100.00;102334.31;5071980;28;20401;-71
2023/10/16 00:13:11;;;;;;;8.40;3.95;;;;;;;5.89;100.00;102335.25;5037580;28;20029;-72
2023/10/16 00:15:41;;;;;;;7.55;3.88;;;;;;;5.87;100.00;102337.22;5052751;28;20095;-72
2023/10/16 00:18:22;;;;;;;11.35;3.95;;;;;;;5.78;100.00;102314.13;5052861;28;20068;-72
2023/10/16 00:20:48;;;;;;;8.13;3.47;;;;;;;5.89;100.00;102336.13;5053021;28;20036;-71
2023/10/16 00:23:13;;;;;;;8.07;3.72;;;;;;;5.90;100.00;102340.44;5052742;28;20286;-71
2023/10/16 00:25:40;;;;;;;8.82;4.25;;;;;;;5.90;100.00;102340.44;5052888;28;20107;-71
2023/10/16 00:28:10;;;;;;;9.85;3.75;;;;;;;5.89;100.00;102336.13;5052791;28;20136;-71
2023/10/16 00:30:37;;;;;;;34.40;5.93;;;;;;;5.90;100.00;102340.44;5052614;28;20025;-71
2023/10/16 00:33:10;;;;;;;6.65;3.70;;;;;;;5.91;100.00;102341.25;5052633;28;20033;-71
2023/10/16 00:35:39;;;;;;;16.33;4.78;;;;;;;5.88;100.00;102330.94;5052607;28;20086;-71
2023/10/16 00:38:12;;;;;;;7.07;3.42;;;;;;;5.86;100.00;102341.66;5052653;28;20029;-71
2023/10/16 00:40:40;;;;;;;8.90;4.15;;;;;;;5.89;100.00;102336.13;5052490;28;20074;-72
2023/10/16 00:43:20;;;;;;;8.35;3.92;;;;;;;5.88;100.00;102329.13;5052567;28;20559;-71
2023/10/16 00:45:59;;;;;;;8.25;3.58;;;;;;;5.88;100.00;102334.41;5052606;28;20037;-71
2023/10/16 00:48:24;;;;;;;8.32;4.45;;;;;;;5.88;100.00;102344.19;5052356;28;20036;-71
2023/10/16 00:50:50;;;;;;;7.57;3.70;;;;;;;5.83;100.00;102339.25;5052429;28;20040;-71
2023/10/16 00:53:20;;;;;;;7.90;3.80;;;;;;;5.85;100.00;102350.56;5034618;28;20029;-71
2023/10/16 00:55:49;;;;;;;5.85;3.45;;;;;;;5.80;100.00;102339.53;5052255;28;20081;-71
2023/10/16 00:58:15;;;;;;;6.55;4.45;;;;;;;5.70;100.00;102342.09;5052236;28;20468;-71
2023/10/16 01:00:46;;;;;;;8.77;3.55;;;;;;;5.63;100.00;102346.25;5052289;28;20113;-71
2023/10/16 01:03:12;;;;;;;5.43;3.88;;;;;;;5.60;100.00;102337.69;5051980;28;20040;-72
2023/10/16 01:05:39;;;;;;;8.90;3.72;;;;;;;5.58;100.00;102345.78;5051982;28;20036;-72
2023/10/16 01:08:07;;;;;;;9.48;4.35;;;;;;;5.58;100.00;102339.63;5052139;28;20031;-71
2023/10/16 01:10:33;;;;;;;7.05;4.18;;;;;;;5.57;100.00;102332.66;5051410;28;20040;-71
2023/10/16 01:13:01;;;;;;;10.63;4.13;;;;;;;5.55;100.00;102318.72;5051765;28;20086;-71
2023/10/16 01:15:27;;;;;;;8.45;3.72;;;;;;;5.57;100.00;102319.41;5051882;28;20040;-71
2023/10/16 01:17:53;;;;;;;7.57;3.72;;;;;;;5.58;100.00;102318.44;5053196;28;20028;-71
2023/10/16 01:20:21;;;;;;;7.82;3.95;;;;;;;5.56;100.00;102325.69;5070969;28;20024;-71
2023/10/16 01:22:52;;;;;;;7.43;5.25;;;;;;;5.52;100.00;102314.50;5070968;28;20025;-71
2023/10/16 01:25:18;;;;;;;9.38;4.40;;;;;;;5.51;100.00;102314.66;5070731;28;20494;-71
2023/10/16 01:27:43;;;;;;;8.55;4.13;;;;;;;5.46;100.00;102307.91;5052754;28;20024;-72
2023/10/16 01:30:09;;;;;;;9.77;4.25;;;;;;;5.47;100.00;102312.22;5066002;28;20418;-71
2023/10/16 01:32:38;;;;;;;6.93;3.90;;;;;;;5.48;100.00;102313.94;5051626;28;20032;-71
2023/10/16 01:35:08;;;;;;;5.80;3.70;;;;;;;5.47;100.00;102316.69;5051684;28;20040;-71
2023/10/16 01:37:35;;;;;;;12.52;5.05;;;;;;;5.45;100.00;102308.06;5051553;28;20040;-71
2023/10/16 01:40:21;;;;;;;6.65;3.97;;;;;;;5.40;100.00;102304.97;5051379;28;20016;-71
2023/10/16 01:42:48;;;;;;;7.35;3.92;;;;;;;5.41;100.00;102307.47;5051335;28;20036;-71
2023/10/16 01:45:15;;;;;;;7.75;3.85;;;;;;;5.44;100.00;102316.94;5051160;28;20048;-71
2023/10/16 01:47:41;;;;;;;12.93;5.60;;;;;;;5.43;100.00;102310.00;5051312;28;20163;-71
2023/10/16 01:50:17;;;;;;;6.05;4.43;;;;;;;5.43;100.00;102305.53;5051103;28;20400;-71
2023/10/16 01:52:42;;;;;;;8.20;4.10;;;;;;;5.40;100.00;102304.97;5051283;28;20456;-71
2023/10/16 01:55:15;;;;;;;8.38;4.10;;;;;;;5.43;100.00;102302.06;5051070;28;20074;-71
2023/10/16 01:57:43;;;;;;;6.57;3.72;;;;;;;5.43;100.00;102297.59;5034397;28;20025;-71
2023/10/16 02:00:16;;;;;;;6.57;3.33;;;;;;;5.40;100.00;102292.56;5050949;28;20032;-71
2023/10/16 02:02:42;;;;;;;5.13;3.53;;;;;;;5.43;100.00;102297.59;5051071;28;20078;-71
2023/10/16 02:05:09;;;;;;;10.55;4.40;;;;;;;5.40;100.00;102299.66;5050792;28;20195;-71
2023/10/16 02:07:37;;;;;;;6.18;3.45;;;;;;;5.42;100.00;102300.34;5033164;28;20170;-71
2023/10/16 02:10:03;;;;;;;5.90;3.50;;;;;;;5.42;100.00;102303.00;5050704;28;20090;-71
2023/10/16 02:12:28;;;;;;;8.65;3.92;;;;;;;5.39;100.00;102297.97;5050657;28;20175;-71
2023/10/16 02:14:54;;;;;;;8.70;3.90;;;;;;;5.42;100.00;102303.00;5032850;28;20108;-71
2023/10/16 02:17:21;;;;;;;7.28;3.65;;;;;;;5.42;100.00;102300.34;5050714;28;20127;-71
2023/10/16 02:19:47;;;;;;;8.02;3.95;;;;;;;5.38;100.00;102285.72;5050549;28;20056;-71
2023/10/16 02:22:14;;;;;;;7.25;3.80;;;;;;;5.36;100.00;102279.72;5049886;28;20048;-71
2023/10/16 02:24:40;;;;;;;7.55;4.47;;;;;;;5.36;100.00;102280.53;5050518;28;20032;-71
2023/10/16 02:27:11;;;;;;;5.28;3.55;;;;;;;5.35;100.00;102285.97;5050529;28;20047;-71
2023/10/16 02:29:37;;;;;;;10.65;4.60;;;;;;;5.31;100.00;102292.47;5050223;28;20071;-71
2023/10/16 02:32:04;;;;;;;6.22;3.80;;;;;;;5.33;100.00;102290.56;5050420;28;20074;-71
2023/10/16 02:34:33;;;;;;;6.97;3.50;;;;;;;5.33;100.00;102288.75;5050308;28;20033;-71
2023/10/16 02:37:00;;;;;;;4.63;3.42;;;;;;;5.33;100.00;102278.16;5050315;28;20085;-71
2023/10/16 02:39:35;;;;;;;8.48;4.00;;;;;;;5.37;100.00;102287.53;5050227;28;20028;-71
2023/10/16 02:42:12;;;;;;;7.72;4.72;;;;;;;5.39;100.00;102282.09;5050311;28;20431;-71
2023/10/16 02:44:45;;;;;;;12.35;6.78;;;;;;;5.40;100.00;102283.78;5050132;28;20033;-71
2023/10/16 02:47:19;;;;;;;10.30;4.13;;;;;;;5.40;100.00;102286.44;5050146;28;20032;-71
2023/10/16 02:49:47;;;;;;;6.65;4.00;;;;;;;5.39;100.00;102284.75;5050122;28;20108;-71
2023/10/16 02:52:17;;;;;;;11.02;4.85;;;;;;;5.39;100.00;102277.63;5050274;28;20051;-71
2023/10/16 02:54:44;;;;;;;9.65;4.90;;;;;;;5.35;100.00;102272.75;5065364;28;20029;-71
2023/10/16 02:57:14;;;;;;;7.93;4.03;;;;;;;5.34;100.00;102277.19;5051079;28;20024;-71
2023/10/16 02:59:39;;;;;;;9.48;4.00;;;;;;;5.32;100.00;102291.50;5069199;28;20074;-71
2023/10/16 03:02:29;;;;;;;11.25;4.53;;;;;;;5.21;100.00;102284.44;5069114;28;20036;-71
2023/10/16 03:05:01;;;;;;;10.00;4.47;;;;;;;5.19;100.00;102291.69;5053383;28;20057;-71
2023/10/16 03:07:27;;;;;;;9.52;4.03;;;;;;;5.16;100.00;102284.00;5052331;28;20065;-71
2023/10/16 03:09:52;;;;;;;8.38;4.38;;;;;;;5.17;100.00;102283.03;5068858;28;20127;-71
2023/10/16 03:12:19;;;;;;;8.48;4.53;;;;;;;5.16;100.00;102282.22;5069049;28;20078;-71
2023/10/16 03:14:45;;;;;;;9.23;5.03;;;;;;;5.21;100.00;102287.09;5068679;28;20021;-71
2023/10/16 03:19:56;;;;;;;12.07;5.45;;;;;;;5.23;100.00;102283.34;5068935;28;20452;-71
2023/10/16 03:22:22;;;;;;;8.35;4.20;;;;;;;5.24;100.00;102287.69;5050962;28;20111;-72
2023/10/16 03:24:48;;;;;;;8.93;5.32;;;;;;;5.25;100.00;102283.25;5068752;28;20033;-71
2023/10/16 03:27:29;;;;;;;8.63;4.30;;;;;;;5.25;100.00;102284.06;5050700;28;20060;-71
2023/10/16 03:29:55;;;;;;;12.48;4.75;;;;;;;5.25;100.00;102278.78;5068839;28;20064;-71
2023/10/16 03:32:23;;;;;;;7.45;4.95;;;;;;;5.25;100.00;102278.78;5068776;28;20032;-71
2023/10/16 03:34:49;;;;;;;11.52;5.32;;;;;;;5.22;100.00;102271.13;5038420;28;20401;-71
2023/10/16 03:37:15;;;;;;;8.98;5.03;;;;;;;5.28;100.00;102273.25;5072906;28;20029;-71
2023/10/16 03:39:41;;;;;;;10.38;5.15;;;;;;;5.27;100.00;102276.88;5072775;28;20127;-71
2023/10/16 03:42:09;;;;;;;6.32;4.05;;;;;;;5.20;100.00;102266.91;5072787;28;20028;-71
2023/10/16 03:44:37;;;;;;;12.23;5.88;;;;;;;5.22;100.00;102281.69;5072588;28;20029;-71
2023/10/16 03:47:05;;;;;;;9.65;4.72;;;;;;;5.17;100.00;102273.28;5072997;28;20170;-71
2023/10/16 03:49:31;;;;;;;14.20;4.57;;;;;;;5.16;100.00;102276.91;5054978;28;20043;-71
2023/10/16 03:51:56;;;;;;;11.60;4.85;;;;;;;5.14;100.00;102278.84;5065001;28;20024;-72
2023/10/16 03:54:30;;;;;;;10.68;5.18;;;;;;;5.12;100.00;102270.19;5054674;28;20364;-71
2023/10/16 03:56:59;;;;;;;9.02;5.13;;;;;;;5.11;100.00;102271.16;5072617;28;20498;-71
2023/10/16 03:59:24;;;;;;;11.70;5.32;;;;;;;5.11;100.00;102276.44;5072278;28;20111;-71
2023/10/16 04:01:50;;;;;;;10.50;5.25;;;;;;;5.12;100.00;102274.63;5046604;28;20127;-71
2023/10/16 04:04:15;;;;;;;13.77;6.32;;;;;;;5.14;100.00;102273.56;5053136;28;20060;-71
2023/10/16 04:06:41;;;;;;;11.82;5.00;;;;;;;5.19;100.00;102265.25;5053003;28;20028;-71
2023/10/16 04:09:09;;;;;;;9.85;5.53;;;;;;;5.21;100.00;102260.66;5053096;28;20116;-71
2023/10/16 04:11:37;;;;;;;15.02;5.15;;;;;;;5.23;100.00;102267.50;5052948;28;20041;-71
2023/10/16 04:14:08;;;;;;;10.05;5.28;;;;;;;5.18;100.00;102256.44;5052939;28;20030;-71
2023/10/16 04:16:43;;;;;;;10.35;5.40;;;;;;;5.23;100.00;102266.66;5053005;28;20033;-71
2023/10/16 04:21:37;;;;;;;9.65;5.93;;;;;;;5.27;100.00;102263.63;5053004;28;20041;-71
2023/10/16 04:24:05;;;;;;;12.25;6.53;;;;;;;5.31;100.00;102266.03;5064973;28;20036;-71
2023/10/16 04:26:35;;;;;;;11.75;5.57;;;;;;;5.32;100.00;102267.69;5072044;28;20028;-71
2023/10/16 04:31:57;;;;;;;12.38;6.82;;;;;;;5.35;100.00;102260.34;5072084;28;20051;-71
2023/10/16 04:50:49;;;;;;;12.60;7.05;;;;;;;5.28;100.00;102244.16;5052378;28;20036;-71
2023/10/16 04:53:14;;;;;;;11.13;6.55;;;;;;;5.25;100.00;102231.19;5051652;28;20493;-71
2023/10/16 05:14:22;;;;;;;11.63;6.40;;;;;;;5.29;100.00;102221.16;5069677;28;20043;-71
2023/10/16 06:14:09;;;;;;;15.10;7.35;;;;;;;5.46;100.00;102228.53;5071250;28;20039;-71
2023/10/16 06:14:10;;;;;;;14.23;7.80;;;;;;;5.83;100.00;102237.81;5035475;28;20043;-71
2023/10/16 06:16:38;;;;;;;14.30;7.35;;;;;;;5.87;100.00;102234.78;5050295;28;20128;-71
2023/10/16 06:19:07;;;;;;;15.63;8.55;;;;;;;5.89;100.00;102234.63;5050549;28;20105;-71
2023/10/16 06:21:33;;;;;;;16.08;7.45;;;;;;;5.90;100.00;102236.34;5050565;28;20024;-71
2023/10/16 06:23:59;;;;;;;13.15;7.65;;;;;;;5.93;100.00;102225.47;5049802;28;20036;-71
2023/10/16 06:26:27;;;;;;;14.25;7.65;;;;;;;5.88;100.00;102225.03;5049527;28;20032;-71
2023/10/16 06:28:52;;;;;;;14.00;7.20;;;;;;;5.89;100.00;102238.16;5050047;28;20029;-71
2023/10/16 06:31:25;;;;;;;16.20;7.63;;;;;;;5.90;100.00;102236.34;5050246;28;20086;-71
2023/10/16 06:33:58;;;;;;;13.60;7.68;;;;;;;5.88;100.00;102228.50;5050408;28;20116;-72
2023/10/16 06:36:28;;;;;;;16.30;7.70;;;;;;;5.91;100.00;102238.81;5050162;28;20033;-71
2023/10/16 06:38:54;;;;;;;13.57;6.53;;;;;;;5.90;100.00;102226.56;5050318;28;20028;-73
2023/10/16 06:41:22;;;;;;;13.95;7.60;;;;;;;5.97;100.00;102229.53;5054360;28;20016;-71
2023/10/16 06:43:49;;;;;;;18.83;8.77;;;;;;;5.96;100.00;102225.22;5069161;28;20060;-71
2023/10/16 06:46:25;;;;;;;13.30;7.55;;;;;;;5.95;100.00;102231.50;5069034;28;20460;-71
2023/10/16 06:48:51;;;;;;;16.90;7.60;;;;;;;5.98;100.00;102228.59;5069107;28;20024;-71
2023/10/16 06:51:17;;;;;;;15.55;7.43;;;;;;;6.02;100.00;102230.00;5051238;28;20036;-71
2023/10/16 06:53:45;;;;;;;16.45;7.60;;;;;;;6.06;100.00;102236.72;5068402;28;20082;-71
2023/10/16 06:56:14;;;;;;;18.95;9.18;;;;;;;6.08;100.00;102236.59;5052012;28;20029;-72
2023/10/16 06:58:40;;;;;;;13.75;7.80;;;;;;;6.12;100.00;102233.53;5060564;28;20529;-71
2023/10/16 07:01:06;;;;;;;18.13;8.52;;;;;;;6.15;100.00;102238.53;5068516;28;20368;-71
2023/10/16 07:03:33;;;;;;;16.92;8.57;;;;;;;6.21;100.00;102239.00;5068694;28;20470;-71
2023/10/16 07:05:59;;;;;;;17.38;10.15;;;;;;;6.18;100.00;102226.00;5034297;28;20048;-72
2023/10/16 07:08:24;;;;;;;17.38;9.15;;;;;;;6.23;100.00;102229.09;5049013;28;20029;-71
2023/10/16 07:10:56;;;;;;;19.38;9.75;;;;;;;6.31;100.00;102235.44;5049513;28;20099;-72
2023/10/16 07:13:29;;;;;;;16.20;9.88;;;;;;;6.39;100.00;102233.88;5059030;28;20061;-71
2023/10/16 07:15:56;;;;;;;17.85;9.77;;;;;;;6.43;100.00;102230.00;5049490;28;20048;-71
2023/10/16 07:18:24;;;;;;;20.35;9.95;;;;;;;6.40;100.00;102231.13;5031500;28;20171;-71
2023/10/16 07:21:07;;;;;;;19.17;9.63;;;;;;;6.47;100.00;102242.00;5037702;28;20032;-71
2023/10/16 07:23:35;;;;;;;21.60;9.27;;;;;;;6.50;100.00;102226.69;5064886;28;20032;-71
2023/10/16 07:26:16;;;;;;;14.95;8.48;;;;;;;6.55;100.00;102237.72;5047387;28;20033;-71
2023/10/16 07:28:48;;;;;;;16.10;9.48;;;;;;;6.56;100.00;102223.47;5048343;28;20037;-71
2023/10/16 07:31:14;;;;;;;16.17;8.20;;;;;;;6.63;100.00;102231.75;5055182;28;20170;-72
2023/10/16 07:33:41;;;;;;;18.48;8.48;;;;;;;6.66;100.00;102222.69;5066888;28;20040;-72
2023/10/16 07:36:11;;;;;;;19.88;8.82;;;;;;;6.70;100.00;102229.38;5066498;28;20436;-73
2023/10/16 07:38:38;;;;;;;18.98;9.70;;;;;;;6.76;100.00;102237.63;5047060;28;20040;-72
2023/10/16 07:41:03;;;;;;;17.00;8.70;;;;;;;6.79;100.00;102228.56;5047227;28;20498;-70
2023/10/16 07:43:34;;;;;;;20.40;10.35;;;;;;;6.84;100.00;102239.59;5028927;28;20033;-72
2023/10/16 07:48:51;;;;;;;14.02;7.80;;;;;;;6.92;100.00;102236.25;5064294;28;20051;-74
2023/10/16 07:51:20;;;;;;;16.80;8.85;;;;;;;6.96;100.00;102235.81;5039519;28;20079;-75
2023/10/16 07:53:48;;;;;;;17.27;8.73;;;;;;;7.02;100.00;102227.31;5046766;28;20032;-74
2023/10/16 07:56:29;;;;;;;13.90;7.85;;;;;;;7.09;100.00;102224.09;5047258;28;20120;-74
2023/10/16 07:59:09;;;;;;;14.48;8.35;;;;;;;7.18;100.00;102226.75;5028968;28;20032;-74
2023/10/16 08:01:45;;;;;;;10.60;7.20;;;;;;;7.25;100.00;102229.66;5046732;28;20079;-73
2023/10/16 08:06:48;;;;;;;16.02;7.40;;;;;;;7.34;100.00;102239.44;5047556;28;20060;-73
2023/10/16 08:11:58;;;;;;;13.57;7.57;;;;;;;7.47;100.00;102228.53;5046183;28;20060;-73
2023/10/16 08:14:31;;;;;;;16.95;9.23;;;;;;;7.58;100.00;102240.81;5036860;28;20074;-73
2023/10/16 08:17:14;;;;;;;16.92;6.93;;;;;;;7.67;100.00;102243.44;5046528;28;20047;-73
2023/10/16 08:19:39;;;;;;;13.93;8.13;;;;;;;7.80;100.00;102236.97;5046639;28;20456;-73
2023/10/16 08:22:07;;;;;;;16.65;7.88;;;;;;;7.92;100.00;102229.69;5032995;28;20107;-73
2023/10/16 08:24:33;;;;;;;14.95;7.90;;;;;;;8.01;100.00;102232.28;5050627;28;20037;-73
2023/10/16 08:29:53;;;;;;;12.15;7.55;;;;;;;8.15;100.00;102228.34;5064799;28;20114;-73
2023/10/16 08:35:09;;;;;;;12.73;7.32;;;;;;;8.29;100.00;102232.31;5070092;28;20051;-73
2023/10/16 08:37:41;;;;;;;14.32;7.15;;;;;;;8.37;100.00;102234.25;5069791;28;20048;-73
2023/10/16 08:40:19;;;;;;;13.48;6.95;;;;;;;8.38;100.00;102230.59;5069468;28;20035;-73
2023/10/16 08:42:50;;;;;;;13.02;7.05;;;;;;;8.49;100.00;102238.41;5024675;28;20060;-73
2023/10/16 08:45:24;;;;;;;12.63;7.32;;;;;;;8.56;100.00;102229.66;5050212;28;20043;-73
2023/10/16 08:47:50;;;;;;;15.13;6.93;;;;;;;8.70;100.00;102223.03;5050142;28;20063;-73
2023/10/16 08:50:17;;;;;;;14.73;6.65;;;;;;;8.79;100.00;102226.59;5050144;28;20729;-73
2023/10/16 08:52:50;;;;;;;12.35;6.07;;;;;;;8.98;100.00;102241.56;5050262;28;20048;-73
2023/10/16 08:55:16;;;;;;;12.05;5.40;;;;;;;9.10;100.00;102240.38;5032130;28;20060;-73
2023/10/16 08:57:44;;;;;;;12.25;6.43;;;;;;;9.20;100.00;102235.81;5032419;28;20071;-73
2023/10/16 09:00:19;;;;;;;28.13;20.33;;;;;;;9.25;100.00;102242.47;5050388;28;20048;-73
2023/10/16 09:02:47;;;;;;;14.57;7.90;;;;;;;9.27;100.00;102238.66;5050454;28;20083;-73
2023/10/16 09:05:12;;;;;;;12.50;7.28;;;;;;;9.39;100.00;102241.94;5032331;28;20060;-73
2023/10/16 09:07:39;;;;;;;11.23;5.70;;;;;;;9.46;100.00;102245.66;5050040;28;20049;-73
2023/10/16 09:10:09;;;;;;;15.68;7.82;;;;;;;9.55;100.00;102242.06;5049822;28;20546;-73
2023/10/16 09:12:37;;;;;;;12.15;5.40;;;;;;;9.67;100.00;102250.66;5066799;28;20024;-73
2023/10/16 09:15:09;;;;;;;10.00;5.40;;;;;;;9.83;100.00;102244.59;5068891;28;20135;-73
2023/10/16 09:17:35;;;;;;;10.20;4.38;;;;;;;9.93;100.00;102242.66;5068933;28;20032;-73
2023/10/16 09:20:02;;;;;;;6.28;4.20;;;;;;;9.97;100.00;102237.81;5060036;28;20048;-74
2023/10/16 09:22:29;;;;;;;11.02;4.32;;;;;;;10.11;100.00;102237.22;5066533;28;20368;-74
2023/10/16 09:24:55;;;;;;;10.25;4.30;;;;;;;10.25;100.00;102241.97;5054626;28;20032;-74
2023/10/16 09:27:29;;;;;;;7.00;4.38;;;;;;;10.31;100.00;102248.50;5039425;28;20056;-75
2023/10/16 09:29:58;;;;;;;7.60;3.88;;;;;;;10.35;100.00;102241.03;5048922;28;20660;-74
2023/10/16 09:32:36;;;;;;;6.07;3.53;;;;;;;10.44;100.00;102234.72;5046051;28;20043;-74
2023/10/16 09:35:05;;;;;;;9.63;4.30;;;;;;;10.48;100.00;102236.91;5065649;28;20111;-74
2023/10/16 09:37:37;;;;;;;11.38;4.53;;;;;;;10.55;100.00;102237.09;5045712;28;20024;-74
2023/10/16 09:40:18;;;;;;;;;;;;;;;10.74;100.00;102243.97;5053507;28;20694;-74
2023/10/16 09:43:05;;;;;;;7.53;3.00;;;;;;;10.80;100.00;102245.19;5059463;28;20646;-75
2023/10/16 09:45:41;;;;;;;5.43;3.30;;;;;;;10.87;100.00;102240.84;5053172;28;20287;-74
2023/10/16 09:48:09;;;;;;;8.52;3.58;;;;;;;10.97;100.00;102245.00;5060684;28;20040;-71
2023/10/16 09:50:42;;;;;;;11.63;4.00;;;;;;;11.06;100.00;102245.06;5046502;28;20041;-72
2023/10/16 09:53:08;;;;;;;4.80;3.53;;;;;;;11.11;100.00;102242.72;5056278;28;20094;-72
2023/10/16 09:55:44;;;;;;;6.28;2.88;;;;;;;11.17;100.00;102253.56;5048676;28;20032;-72
2023/10/16 09:58:11;;;;;;;8.10;2.67;;;;;;;11.19;100.00;102253.41;5032505;28;20383;-72
2023/10/16 10:00:40;;;;;;;12.10;3.30;;;;;;;11.27;100.00;102252.56;5062901;28;20536;-72
2023/10/16 10:03:07;;;;;;;8.50;3.20;;;;;;;11.17;100.00;102234.88;5067901;28;20040;-72
2023/10/16 10:05:41;;;;;;;6.20;3.17;;;;;;;11.26;100.00;102235.69;5067809;28;20029;-72
2023/10/16 10:08:22;;;;;;;10.18;4.57;;;;;;;11.35;100.00;102234.69;5063726;28;20392;-73
2023/10/16 10:13:43;;;;;;;6.75;3.90;;;;;;;11.72;100.00;102249.34;5065906;28;19923;-74
2023/10/16 10:16:20;;;;;;;7.15;3.63;;;;;;;11.75;100.00;102251.69;5032147;28;20085;-73
2023/10/16 10:18:47;;;;;;;8.23;4.25;;;;;;;11.74;100.00;102251.88;5060408;28;20092;-74
2023/10/16 10:21:27;;;;;;;5.93;2.80;;;;;;;11.80;100.00;102246.66;5036556;28;20853;-75
2023/10/16 10:24:00;;;;;;;9.43;3.95;;;;;;;11.73;100.00;102237.66;5057156;28;20032;-74
2023/10/16 10:26:25;;;;;;;6.57;3.13;;;;;;;11.77;100.00;102243.50;5048556;28;20041;-74
2023/10/16 10:29:11;;;;;;;5.90;2.58;;;;;;;11.77;100.00;102243.50;5048401;28;20083;-73
2023/10/16 10:31:41;;;;;;;6.55;1.98;;;;;;;11.74;100.00;102243.84;5066655;28;20033;-75
2023/10/16 10:34:23;;;;;;;5.57;1.85;;;;;;;11.72;100.00;102252.03;5052728;28;20029;-75
2023/10/16 10:36:50;;;;;;;2.58;1.55;;;;;;;11.71;100.00;102245.03;5048275;28;20049;-73
2023/10/16 10:39:21;;;;;;;5.28;1.83;;;;;;;11.71;100.00;102245.03;5030508;28;20033;-73
2023/10/16 10:41:55;;;;;;;7.32;3.15;;;;;;;11.68;100.00;102237.31;5048719;28;20032;-73
2023/10/16 10:44:43;;;;;;;5.20;1.88;;;;;;;11.65;100.00;102229.66;5047122;28;20036;-74
2023/10/16 10:47:17;;;;;;;3.78;2.30;;;;;;;11.71;100.00;102247.69;5048035;28;20048;-73
2023/10/16 10:49:43;;;;;;;5.50;2.35;;;;;;;11.73;100.00;102243.00;5053228;28;20067;-73
2023/10/16 10:52:12;;;;;;;7.00;2.50;;;;;;;11.80;100.00;102237.81;5067006;28;20770;-74
2023/10/16 10:54:43;;;;;;;6.05;2.00;;;;;;;11.83;100.00;102227.59;5046099;28;20631;-73
2023/10/16 10:57:19;;;;;;;7.18;2.85;;;;;;;11.85;100.00;102233.63;5059088;28;20089;-73
2023/10/16 10:59:47;;;;;;;3.35;2.50;;;;;;;11.84;99.42;102223.94;5047814;28;20099;-73
2023/10/16 11:04:59;;;;;;;2.65;1.58;;;;;;;11.82;99.65;102222.44;5056772;28;20103;-75
2023/10/16 11:07:29;;;;;;;5.35;1.70;;;;;;;11.76;97.80;102217.75;5056652;28;20028;-70
2023/10/16 11:09:59;;;;;;;2.15;1.70;;;;;;;11.73;96.89;102224.28;5063613;28;20035;-72
2023/10/16 11:12:24;;;;;;;3.55;1.98;;;;;;;11.74;98.92;102217.13;5054164;28;20633;-72
2023/10/16 11:14:51;;;;;;;3.72;1.67;;;;;;;11.85;99.61;102214.91;5047353;28;20032;-74
2023/10/16 11:17:39;;;;;;;1.98;1.73;;;;;;;12.06;100.00;102211.69;5059458;28;20029;-73
2023/10/16 11:20:39;;;;;;;3.92;1.60;;;;;;;12.05;98.67;102214.53;5063508;28;20036;-71
2023/10/16 11:22:58;;;;;;;2.33;1.50;;;;;;;12.03;95.93;102208.56;5063394;28;20040;-71
2023/10/16 11:25:28;;;;;;;2.55;1.60;;;;;;;12.07;98.97;102212.53;5049131;28;20115;-73
2023/10/16 11:27:57;;;;;;;2.33;1.90;;;;;;;12.13;97.93;102200.28;5052277;28;20800;-73
2023/10/16 11:30:26;;;;;;;4.53;1.98;;;;;;;12.20;96.98;102204.78;5056387;28;20032;-72
2023/10/16 11:32:54;;;;;;;1.90;1.42;;;;;;;12.14;99.36;102205.47;5065189;28;20476;-71
2023/10/16 11:35:20;;;;;;;4.72;1.70;;;;;;;12.06;99.00;102189.47;5050675;28;20035;-73
2023/10/16 11:37:59;;;;;;;11.35;3.85;;;;;;;12.04;100.00;102200.34;5068729;28;20084;-72
2023/10/16 11:40:32;;;;;;;4.65;2.38;;;;;;;11.94;100.00;102197.03;5068507;28;20020;-72
2023/10/16 11:43:02;;;;;;;8.20;3.85;;;;;;;11.84;100.00;102199.88;5068488;28;20089;-72
2023/10/16 11:45:32;;;;;;;5.82;2.90;;;;;;;11.79;100.00;102193.41;5068406;28;20392;-73
2023/10/16 11:48:35;;;;;;;6.80;1.65;;;;;;;11.73;100.00;102175.34;5050364;28;20032;-72
2023/10/16 11:51:15;;;;;;;6.97;1.63;;;;;;;11.69;100.00;102171.38;5068448;28;20024;-72
2023/10/16 11:53:41;;;;;;;3.22;1.65;;;;;;;11.66;100.00;102174.34;5049253;28;20044;-72
2023/10/16 11:56:08;;;;;;;3.92;1.88;;;;;;;11.62;100.00;102168.53;5053219;28;20090;-72
2023/10/16 11:58:34;;;;;;;3.92;1.95;;;;;;;11.65;100.00;102170.84;5053171;28;20115;-72
2023/10/16 12:01:20;;;;;;;1.95;1.50;;;;;;;11.66;100.00;102169.88;5061709;28;20032;-72
2023/10/16 12:03:45;;;;;;;3.15;1.70;;;;;;;11.69;100.00;102168.69;5066398;28;20093;-72
2023/10/16 12:06:13;;;;;;;3.63;2.00;;;;;;;11.71;100.00;102164.84;5065675;28;20052;-72
2023/10/16 12:08:41;;;;;;;3.25;1.80;;;;;;;11.76;100.00;102165.16;5061368;28;20036;-72
2023/10/16 12:11:07;;;;;;;4.32;1.83;;;;;;;11.83;100.00;102165.28;5071867;28;20032;-72
2023/10/16 12:13:33;;;;;;;2.25;1.90;;;;;;;11.92;100.00;102163.44;5071763;28;20091;-72
2023/10/16 12:15:59;;;;;;;3.42;2.10;;;;;;;12.05;100.00;102161.06;5072170;28;20483;-72
2023/10/16 12:18:31;;;;;;;7.18;2.40;;;;;;;12.19;100.00;102163.00;5052599;28;20029;-72
2023/10/16 12:21:04;;;;;;;3.40;2.53;;;;;;;12.27;99.95;102154.94;5052503;28;20025;-72
2023/10/16 12:23:32;;;;;;;3.55;2.50;;;;;;;12.32;96.24;102154.41;5052631;28;20111;-72
2023/10/16 12:25:59;;;;;;;5.50;2.28;;;;;;;12.26;97.55;102136.38;5052611;28;20033;-72
2023/10/16 12:28:26;;;;;;;4.03;1.63;;;;;;;12.39;98.07;102151.84;5052504;28;20495;-72
2023/10/16 12:30:52;;;;;;;3.72;1.75;;;;;;;12.37;94.01;102145.88;5052436;28;20040;-72
2023/10/16 12:33:17;;;;;;;4.28;1.88;;;;;;;12.39;97.07;102147.34;5052357;28;20044;-72
2023/10/16 12:35:43;;;;;;;4.50;2.10;;;;;;;12.38;96.58;102140.31;5052608;28;20047;-72
2023/10/16 12:38:10;;;;;;;2.97;1.73;;;;;;;12.45;96.37;102151.16;5068661;28;20040;-72
2023/10/16 12:40:38;;;;;;;3.28;1.80;;;;;;;12.45;96.20;102143.13;5071862;28;20032;-72
2023/10/16 12:43:06;;;;;;;4.28;1.98;;;;;;;12.42;97.08;102140.81;5071509;28;20572;-72
2023/10/16 12:45:32;;;;;;;4.00;1.98;;;;;;;12.44;94.37;102141.44;5071566;28;20036;-72
2023/10/16 12:47:58;;;;;;;3.55;1.80;;;;;;;12.39;94.67;102133.13;5071497;28;20024;-73
2023/10/16 12:50:24;;;;;;;3.75;1.90;;;;;;;12.36;94.74;102139.66;5057868;28;20060;-72
2023/10/16 12:52:56;;;;;;;3.95;2.10;;;;;;;12.36;94.63;102128.13;5052202;28;20033;-72
2023/10/16 12:55:22;;;;;;;3.22;1.77;;;;;;;12.26;93.22;102131.88;5052212;28;20069;-72
2023/10/16 12:57:49;;;;;;;5.22;1.65;;;;;;;12.28;96.33;102131.69;5052189;28;20032;-72
2023/10/16 13:00:19;;;;;;;4.20;2.08;;;;;;;12.22;94.12;102132.41;5052275;28;20394;-72
2023/10/16 13:02:51;;;;;;;2.38;1.90;;;;;;;12.19;94.01;102124.72;5052055;28;20037;-72
2023/10/16 13:05:19;;;;;;;2.00;1.80;;;;;;;12.22;93.74;102129.72;5051413;28;20076;-73
2023/10/16 13:07:47;;;;;;;4.13;2.08;;;;;;;12.24;94.91;102128.53;5051463;28;20040;-73
2023/10/16 13:10:14;;;;;;;7.45;2.20;;;;;;;12.30;94.28;102127.00;5051668;28;20025;-73
2023/10/16 13:12:43;;;;;;;5.57;2.45;;;;;;;12.34;97.06;102122.97;5051960;28;20476;-72
2023/10/16 13:15:10;;;;;;;2.85;2.10;;;;;;;12.45;98.58;102127.91;5051942;28;20094;-72
2023/10/16 13:17:37;;;;;;;4.43;2.05;;;;;;;12.54;99.14;102131.34;5063816;28;20071;-72
2023/10/16 13:20:04;;;;;;;2.33;1.70;;;;;;;12.57;95.48;102120.28;5071302;28;20032;-73
2023/10/16 13:22:31;;;;;;;4.75;1.80;;;;;;;12.61;98.79;102124.28;5051586;28;20452;-73
2023/10/16 13:24:56;;;;;;;3.53;1.90;;;;;;;12.61;94.04;102120.78;5051628;28;20032;-73
2023/10/16 13:27:22;;;;;;;5.32;2.20;;;;;;;12.61;93.28;102116.25;5058933;28;20032;-72